Latest Weather Observations for Evans Head

IDN60801

Issued at 7:33 am EST Tuesday 26 July 2016 (issued every 30 minutes, with the page automatically refreshed every 10 minutes)

About weather observations | Map of weather stations | Latest weather observations for NSW | Other Formats
Station Details ID: 058212 Name: EVANS HEAD RAAF BOMBING RANGE AWS Lat: -29.18 Lon: 153.40 Height: 62.5 m
Data from the previous 72 hours. | See also: Recent months at Evans Head
Date/Time
EST
Temp
°C
App
Temp
°C
Dew
Point
°C
Rel
Hum
%
Delta-T
°C
Wind Press
QNH
hPa
Press
MSL
hPa
Rain since
9am
mm
Dir  Spd
km/h
Gust
km/h
Spd
kts
Gust
kts
26/07:30am 9.8 6.0 3.8 66 2.6 NW 13 20 7 11 1018.7 1018.6 0.0
26/07:00am 10.0 6.1 3.5 64 2.8 WNW 13 17 7 9 1018.6 1018.5 0.0
26/06:30am 9.9 6.0 3.4 64 2.8 NW 13 20 7 11 1018.2 1018.1 0.0
26/06:00am 10.2 6.4 3.9 65 2.8 WNW 13 17 7 9 1017.7 1017.6 0.0
26/05:30am 10.6 6.5 4.3 65 2.8 WNW 15 22 8 12 1017.4 1017.3 0.0
26/05:00am 9.6 5.1 4.2 69 2.4 NW 17 24 9 13 1017.1 1017.0 0.0
26/04:30am 10.0 5.6 4.8 70 2.3 NW 17 24 9 13 1017.1 1017.0 0.0
26/04:00am 9.9 5.9 4.7 70 2.3 NW 15 22 8 12 1017.1 1017.0 0.0
26/03:30am 10.4 6.4 4.8 68 2.5 NW 15 22 8 12 1016.5 1016.4 0.0
26/03:00am 10.6 6.6 4.9 68 2.6 NW 15 24 8 13 1017.0 1016.9 0.0
26/02:30am 11.0 6.9 4.5 64 2.9 NW 15 20 8 11 1016.6 1016.5 0.0
26/02:00am 10.6 7.0 5.2 69 2.5 NW 13 20 7 11 1016.7 1016.6 0.0
26/01:30am 10.9 8.4 4.6 65 2.8 NNW 7 11 4 6 1017.2 1017.1 0.0
26/01:00am 11.7 8.4 4.4 61 3.3 NW 11 17 6 9 1017.2 1017.1 0.0
26/12:30am 11.1 7.5 5.2 67 2.7 NW 13 22 7 12 1017.2 1017.1 0.0
26/12:00am 9.8 6.3 5.6 75 1.9 NW 13 17 7 9 1017.4 1017.3 0.0
 
Date/Time
EST
Temp
°C
App
Temp
°C
Dew
Point
°C
Rel
Hum
%
Delta-T
°C
Wind Press
QNH
hPa
Press
MSL
hPa
Rain since
9am
mm
Dir  Spd
km/h
Gust
km/h
Spd
kts
Gust
kts
25/11:30pm 10.1 7.1 5.9 75 1.9 NNW 11 15 6 8 1017.5 1017.4 0.0
25/11:00pm 11.3 8.2 5.4 67 2.7 NW 11 17 6 9 1017.3 1017.2 0.0
25/10:30pm 12.3 9.8 5.0 61 3.4 NW 7 11 4 6 1017.4 1017.3 0.0
25/10:00pm 12.8 9.2 5.2 60 3.5 WNW 13 17 7 9 1017.2 1017.1 0.0
25/09:30pm 13.4 10.4 5.8 60 3.6 W 11 15 6 8 1017.4 1017.3 0.0
25/09:00pm 13.2 10.3 6.5 64 3.2 WNW 11 15 6 8 1017.4 1017.3 0.0
25/08:30pm 11.6 9.1 8.3 80 1.6 NW 11 15 6 8 1017.0 1016.9 0.0
25/08:00pm 11.8 9.4 8.5 80 1.6 NNW 11 15 6 8 1017.1 1017.0 0.0
25/07:30pm 12.1 10.1 8.8 80 1.6 NNW 9 13 5 7 1016.8 1016.7 0.0
25/07:00pm 11.8 9.4 8.6 81 1.6 NNW 11 17 6 9 1016.5 1016.4 0.0
25/06:30pm 12.1 9.6 8.4 78 1.8 N 11 15 6 8 1016.2 1016.1 0.0
25/06:00pm 13.1 10.6 8.2 72 2.4 N 11 15 6 8 1016.0 1015.9 0.0
25/05:30pm 14.1 11.5 7.9 66 3.1 N 11 13 6 7 1015.6 1015.5 0.0
25/05:00pm 15.2 13.3 7.7 61 3.7 NNE 7 11 4 6 1015.4 1015.3 0.0
25/04:30pm 16.0 13.4 7.7 58 4.2 ENE 11 17 6 9 1015.3 1015.2 0.0
25/04:00pm 16.7 13.7 7.9 56 4.5 E 13 17 7 9 1015.2 1015.1 0.0
25/03:30pm 17.7 15.0 7.2 50 5.3 ESE 11 17 6 9 1015.0 1014.9 0.0
25/03:00pm 18.6 15.6 7.7 49 5.6 ESE 13 20 7 11 1015.0 1014.9 0.0
25/02:30pm 21.4 18.6 5.3 35 8.0 NNW 9 13 5 7 1014.9 1014.8 0.0
25/02:00pm 20.6 18.1 4.6 35 7.8 NW 7 13 4 7 1015.1 1015.0 0.0
25/01:30pm 21.3 19.5 7.9 42 7.0 NW 7 20 4 11 1015.2 1015.1 0.0
25/01:00pm 21.4 19.3 6.5 38 7.6 NW 7 13 4 7 1015.3 1015.2 0.0
25/12:30pm 19.7 16.0 4.6 37 7.3 W 13 22 7 12 1015.5 1015.4 0.0
25/12:00pm 19.9 16.0 5.2 38 7.2 NW 15 22 8 12 1015.9 1015.8 0.0
25/11:30am 19.1 16.0 7.2 46 6.0 W 13 22 7 12 1016.5 1016.4 0.0
25/11:00am 18.4 14.8 4.9 41 6.5 WNW 13 28 7 15 1016.8 1016.7 0.0
25/10:30am 18.8 15.6 6.9 46 6.0 WNW 13 24 7 13 1017.3 1017.2 0.0
25/10:00am 17.9 14.9 5.8 45 5.9 WNW 11 19 6 10 1017.5 1017.4 0.0
25/09:30am 16.8 13.4 6.0 49 5.3 WNW 13 19 7 10 1017.8 1017.7 0.0
25/09:00am 15.9 13.3 6.1 52 4.7 NW 9 15 5 8 1017.9 1017.8 0.0
25/08:30am 15.1 12.7 6.9 58 4.0 NNW 9 15 5 8 1017.9 1017.8 0.0
25/08:00am 13.2 9.9 4.6 56 4.0 WNW 11 17 6 9 1017.7 1017.6 0.0
25/07:30am 10.9 7.1 3.7 61 3.2 WNW 13 17 7 9 1017.4 1017.3 0.0
25/07:00am 10.2 6.5 2.1 57 3.4 W 11 13 6 7 1017.1 1017.0 0.0
25/06:30am 10.1 6.5 2.7 60 3.2 W 11 13 6 7 1016.9 1016.8 0.0
25/06:00am 9.5 5.5 2.8 63 2.9 W 13 15 7 8 1016.5 1016.4 0.0
25/05:30am 10.2 6.2 3.0 61 3.1 WSW 13 19 7 10 1016.2 1016.1 0.0
25/05:00am 9.9 6.8 3.6 65 2.8 W 9 13 5 7 1016.2 1016.1 0.0
25/04:30am 10.4 6.6 3.9 64 2.9 WSW 13 17 7 9 1016.1 1016.0 0.0
25/04:00am 11.0 6.6 4.5 64 2.9 SW 17 22 9 12 1015.7 1015.6 0.0
25/03:30am 11.2 7.7 5.3 67 2.7 SW 13 17 7 9 1015.7 1015.6 0.0
25/03:00am 11.6 7.2 5.0 64 3.0 SW 17 24 9 13 1015.6 1015.5 0.0
25/02:30am 11.5 7.7 5.8 68 2.7 SW 15 20 8 11 1015.6 1015.5 0.0
25/02:00am 11.8 8.4 5.7 66 2.8 SW 13 17 7 9 1015.6 1015.5 0.0
25/01:30am 12.5 9.0 5.4 62 3.3 SW 13 17 7 9 1015.7 1015.6 0.0
25/01:00am 12.8 9.2 5.0 59 3.6 SW 13 19 7 10 1015.7 1015.6 0.0
25/12:30am 12.8 9.8 5.9 63 3.3 WSW 11 15 6 8 1015.7 1015.6 0.0
25/12:00am 12.9 10.1 6.9 67 2.9 WSW 11 19 6 10 1015.6 1015.5 0.0
 
Date/Time
EST
Temp
°C
App
Temp
°C
Dew
Point
°C
Rel
Hum
%
Delta-T
°C
Wind Press
QNH
hPa
Press
MSL
hPa
Rain since
9am
mm
Dir  Spd
km/h
Gust
km/h
Spd
kts
Gust
kts
24/11:30pm 13.4 11.2 7.8 69 2.8 SW 9 15 5 8 1015.4 1015.3 0.0
24/11:00pm 14.1 12.1 8.7 70 2.7 SW 9 15 5 8 1015.3 1015.2 0.0
24/10:30pm 14.3 12.6 9.7 74 2.4 WSW 9 9 5 5 1015.2 1015.1 0.0
24/10:00pm 14.2 12.2 10.0 76 2.2 WSW 11 15 6 8 1014.9 1014.8 0.0
24/09:30pm 14.3 12.6 9.9 75 2.3 W 9 11 5 6 1014.7 1014.6 0.0
24/09:00pm 14.5 12.5 10.1 75 2.3 WSW 11 15 6 8 1014.5 1014.4 0.0
24/08:30pm 14.0 11.6 10.2 78 2.0 WSW 13 17 7 9 1014.8 1014.7 0.0
24/08:00pm 15.1 15.1 9.7 70 2.8 CALM 0 9 0 5 1014.4 1014.3 0.0
24/07:30pm 15.2 15.2 9.8 70 2.8 CALM 0 0 0 0 1014.3 1014.2 0.0
24/07:00pm 15.1 15.0 9.5 69 2.9 CALM 0 0 0 0 1014.3 1014.2 0.0
24/06:30pm 14.9 14.7 9.1 68 3.0 CALM 0 0 0 0 1014.2 1014.1 0.0
24/06:00pm 15.4 14.7 8.6 64 3.5 NE 2 7 1 4 1014.2 1014.1 0.0
24/05:30pm 15.2 13.2 8.7 65 3.3 NE 9 11 5 6 1013.8 1013.7 0.0
24/05:00pm 15.7 14.9 9.8 68 3.1 ENE 4 9 2 5 1013.5 1013.4 0.0
24/04:30pm 16.2 14.9 9.8 66 3.4 NE 7 11 4 6 1013.4 1013.3 0.0
24/04:00pm 16.4 14.5 9.1 62 3.8 NE 9 13 5 7 1012.7 1012.7 0.0
24/03:30pm 16.9 14.0 8.1 56 4.5 ENE 13 17 7 9 1012.5 1012.5 0.0
24/03:00pm 17.1 14.6 8.0 55 4.6 E 11 15 6 8 1012.9 1012.9 0.0
24/02:30pm 17.2 15.2 8.6 57 4.4 SE 9 15 5 8 1013.3 1013.2 0.0
24/02:00pm 17.7 15.2 8.3 54 4.8 SE 11 15 6 8 1013.7 1013.6 0.0
24/01:30pm 18.6 15.7 8.3 51 5.3 SE 13 20 7 11 1014.3 1014.2 0.0
24/01:00pm 19.5 17.7 7.9 47 6.0 S 7 15 4 8 1014.9 1014.8 0.0
24/12:30pm 18.4 16.5 6.9 47 5.8 WSW 6 13 3 7 1015.2 1015.1 0.0
24/12:00pm 17.4 15.3 6.0 47 5.6 SSW 6 11 3 6 1015.7 1015.6 0.0
24/11:30am 17.1 14.2 4.4 43 6.0 WNW 9 13 5 7 1016.1 1016.0 0.0
24/11:00am 16.6 13.4 4.9 46 5.6 WSW 11 15 6 8 1016.6 1016.5 0.0
24/10:30am 15.9 12.2 4.3 46 5.4 SW 13 19 7 10 1017.1 1017.0 0.0
24/10:00am 15.9 12.3 4.9 48 5.2 W 13 17 7 9 1017.1 1017.0 0.0
24/09:30am 14.8 11.4 4.2 49 4.9 WSW 11 17 6 9 1017.1 1017.0 0.0
24/09:00am 13.9 11.1 5.0 55 4.2 W 9 15 5 8 1016.9 1016.8 0.0
24/08:30am 14.3 11.1 5.1 54 4.3 W 11 17 6 9 1016.8 1016.7 0.0
24/08:00am 12.8 10.0 5.0 59 3.6 WNW 9 13 5 7 1016.0 1015.9 0.0
24/07:30am 11.9 8.0 3.2 55 3.8 W 13 20 7 11 1016.7 1016.6 0.0
24/07:00am 11.4 7.8 2.9 56 3.7 W 11 17 6 9 1016.4 1016.3 0.0
24/06:30am 11.3 7.3 2.9 56 3.7 W 13 19 7 10 1016.3 1016.2 0.0
24/06:00am 11.3 7.7 3.1 57 3.6 WSW 11 17 6 9 1015.5 1015.4 0.0
24/05:30am 11.9 7.9 2.6 53 4.1 WSW 13 17 7 9 1014.6 1014.5 0.0
24/05:00am 11.8 8.6 2.8 54 3.9 WSW 9 13 5 7 1014.4 1014.3 0.0
24/04:30am 11.9 8.6 2.6 53 4.1 WSW 9 11 5 6 1014.1 1014.0 0.0
24/04:00am 12.2 8.9 2.4 51 4.3 W 9 13 5 7 1014.0 1013.9 0.0
24/03:30am 12.5 9.2 2.7 51 4.3 W 9 17 5 9 1014.1 1014.0 0.0
24/03:00am 12.6 9.3 2.5 50 4.4 W 9 13 5 7 1014.3 1014.2 0.0
24/02:30am 13.2 9.5 2.4 48 4.7 WSW 11 17 6 9 1014.1 1014.0 0.0
24/02:00am 13.0 9.3 2.6 49 4.6 WNW 11 17 6 9 1013.5 1013.4 0.0
24/01:30am 13.0 8.9 2.3 48 4.7 W 13 20 7 11 1013.7 1013.6 0.0
24/01:00am 13.5 9.0 2.1 46 5.0 WSW 15 22 8 12 1013.9 1013.8 0.0
24/12:30am 13.8 9.8 2.7 47 4.9 W 13 20 7 11 1013.4 1013.3 0.0
24/12:00am 13.8 9.8 2.7 47 4.9 W 13 19 7 10 1013.3 1013.2 0.0
 
Date/Time
EST
Temp
°C
App
Temp
°C
Dew
Point
°C
Rel
Hum
%
Delta-T
°C
Wind Press
QNH
hPa
Press
MSL
hPa
Rain since
9am
mm
Dir  Spd
km/h
Gust
km/h
Spd
kts
Gust
kts
23/11:30pm 13.9 10.8 3.4 49 4.7 WSW 9 15 5 8 1013.5 1013.4 0.0
23/11:00pm 13.8 10.6 3.3 49 4.7 W 9 13 5 7 1013.0 1013.0 0.0
23/10:30pm 14.1 10.2 3.6 49 4.8 W 13 20 7 11 1012.5 1012.5 0.0
23/10:00pm 14.4 10.5 3.5 48 5.0 NW 13 20 7 11 1012.6 1012.6 0.0
23/09:30pm 15.5 11.2 3.0 43 5.7 WNW 15 22 8 12 1012.1 1012.1 0.0
23/09:00pm 16.0 11.7 3.1 42 5.9 NW 15 24 8 13 1012.0 1012.0 0.0
23/08:30pm 16.9 12.2 2.9 39 6.4 WNW 17 28 9 15 1011.3 1011.3 0.0
23/08:00pm 17.5 12.4 3.0 38 6.7 WNW 19 32 10 17 1010.8 1010.8 0.0
23/07:30pm 18.2 13.1 2.9 36 7.1 WNW 19 32 10 17 1010.4 1010.4 0.0
23/07:00pm 18.7 13.3 2.5 34 7.5 WNW 20 37 11 20 1009.8 1009.8 0.0
23/06:30pm 19.5 14.1 2.4 32 7.9 WNW 20 32 11 17 1009.0 1009.0 0.0
23/06:00pm 20.4 15.0 2.3 30 8.4 WNW 20 32 11 17 1008.7 1008.7 0.0
23/05:30pm 21.3 15.1 2.1 28 9.0 WNW 24 37 13 20 1007.9 1007.9 0.0
23/05:00pm 22.2 16.5 2.8 28 9.3 WNW 22 39 12 21 1007.1 1007.1 0.0
23/04:30pm 23.3 17.3 3.3 27 9.7 WNW 24 44 13 24 1006.6 1006.5 0.0
23/04:00pm 24.3 19.2 4.1 27 10.0 WNW 20 37 11 20 1006.5 1006.4 0.0
23/03:30pm 25.0 20.9 6.2 30 9.7 WNW 17 30 9 16 1006.2 1006.1 0.0
23/03:00pm 26.0 21.5 7.1 30 10.0 WNW 20 39 11 21 1005.8 1005.7 0.0
23/02:30pm 25.7 21.2 9.9 37 8.8 WNW 24 43 13 23 1005.7 1005.6 0.0
23/02:06pm 26.1 20.8 9.9 36 9.0 WNW 28 54 15 29 1005.5 1005.4 0.0
23/02:00pm 26.9 22.3 9.7 34 9.6 WNW 24 46 13 25 1005.5 1005.4 0.0
23/01:30pm 27.2 23.9 11.7 38 8.9 WNW 20 37 11 20 1005.4 1005.3 0.0
23/01:15pm 26.9 22.3 12.2 40 8.5 WNW 28 46 15 25 1005.3 1005.2 0.0
23/01:00pm 26.6 22.1 12.6 42 8.2 NW 28 44 15 24 1005.4 1005.3 0.0
23/12:49pm 27.0 22.3 11.9 39 8.7 WNW 28 57 15 31 1005.6 1005.5 0.0
23/12:30pm 27.3 23.7 12.9 41 8.4 WNW 24 43 13 23 1005.8 1005.7 0.0
23/12:15pm 27.3 23.1 13.6 43 8.1 WNW 28 48 15 26 1005.8 1005.7 0.0
23/12:00pm 27.1 23.4 13.8 44 7.9 WNW 26 44 14 24 1005.9 1005.8 0.0
23/11:30am 27.2 23.7 14.6 46 7.6 NW 26 43 14 23 1006.4 1006.3 0.0
23/11:00am 27.2 25.4 15.9 50 7.0 NW 20 32 11 17 1006.4 1006.3 0.0
23/10:30am 26.3 25.1 17.1 57 5.7 WNW 19 32 10 17 1006.4 1006.3 0.0
23/10:00am 24.4 22.9 17.6 66 4.3 NW 22 33 12 18 1006.3 1006.2 0.0
23/09:30am 22.3 20.7 17.4 74 3.0 NW 22 35 12 19 1006.5 1006.4 0.0
23/09:00am 22.7 22.0 18.7 78 2.5 NW 20 33 11 18 1006.4 1006.3 0.0
23/08:30am 21.7 21.6 19.6 88 1.3 NNW 19 32 10 17 1006.0 1005.9 0.0
23/08:00am 20.3 20.2 19.5 95 0.5 NNW 19 32 10 17 1006.1 1006.0 0.0

Other Formats:

Comma delimited format used in spreadsheet applications
http://www.bom.gov.au/fwo/IDN60801/IDN60801.94598.axf

JavaScript Object Notation format (JSON) in row-major order
http://www.bom.gov.au/fwo/IDN60801/IDN60801.94598.json